Terrenceville, Canada
Current Conditions -  °F | °C
As of 9:00 AM on Thursday 18 Dec 2014 (Local Time) from CYQX Reporting Station
Freezing Drizzle Freezing Drizzle  
Wind Chill: 20°   Ceiling: 300
Heat Index: 30°   Visibility: 4mi
Dew Point: 30°   Wind: 13mph
Humidity: 100%   Direction: 110°ESE
Pressure: 30"   Gusts: NA
Location:  47.68°N, 54.72°W
Report Text: CYQX 181200Z 11011KT 4SM -FZDZ BR BKN003 OVC008 M01/M01 A3000 RMK SF7SF1 VIS HEIR N SLP166
Loading
Personal Weather Stations






























Interactive Weather Map New forecast layout! Learn more

10-Day Weather Forecast

Advertisements
Track Severe Weather on mobile